createdAt,value
2023-03-29T00:00:29.159Z,0.00
2023-03-29T00:01:35.881Z,0.00
2023-03-29T00:02:30.832Z,0.00
2023-03-29T00:03:30.075Z,0.00
2023-03-29T00:04:30.386Z,0.00
2023-03-29T00:05:30.606Z,0.00
2023-03-29T00:06:30.889Z,0.00
2023-03-29T00:07:31.189Z,0.00
2023-03-29T00:08:31.585Z,0.00
2023-03-29T00:09:31.838Z,0.00
2023-03-29T00:10:32.148Z,0.00
2023-03-29T00:11:32.441Z,0.00
2023-03-29T00:12:32.675Z,0.00
2023-03-29T00:13:32.999Z,0.00
2023-03-29T00:14:33.281Z,0.00
2023-03-29T00:15:33.621Z,0.00
2023-03-29T00:16:33.917Z,0.00
2023-03-29T00:17:34.240Z,0.00
2023-03-29T00:18:34.514Z,0.00
2023-03-29T00:19:34.817Z,0.00
2023-03-29T00:20:35.156Z,0.00
2023-03-29T00:21:35.421Z,0.00
2023-03-29T00:22:35.665Z,0.00
2023-03-29T00:23:36.024Z,0.00
2023-03-29T00:24:36.327Z,0.00
2023-03-29T00:25:36.513Z,1.00
2023-03-29T00:26:36.865Z,0.00
2023-03-29T00:27:37.221Z,0.00
2023-03-29T00:28:37.526Z,0.00
2023-03-29T00:29:37.768Z,0.00
2023-03-29T00:30:38.104Z,0.00
2023-03-29T00:31:38.487Z,0.00
2023-03-29T00:32:38.681Z,0.00
2023-03-29T00:33:38.897Z,0.00
2023-03-29T00:34:39.164Z,0.00
2023-03-29T00:35:39.515Z,0.00
2023-03-29T00:36:39.766Z,0.00
2023-03-29T00:37:40.126Z,0.00
2023-03-29T00:38:40.398Z,0.00
2023-03-29T00:39:40.700Z,0.00
2023-03-29T00:40:40.942Z,0.00
2023-03-29T00:41:41.206Z,0.00
2023-03-29T00:42:41.580Z,0.00
2023-03-29T00:43:41.806Z,0.00
2023-03-29T00:44:42.129Z,0.00
2023-03-29T00:45:43.321Z,0.00
2023-03-29T00:46:42.795Z,0.00
2023-03-29T00:47:43.033Z,0.00
2023-03-29T00:48:43.324Z,0.00
2023-03-29T00:49:43.544Z,0.00
2023-03-29T00:50:43.856Z,0.00
2023-03-29T00:51:44.222Z,0.00
2023-03-29T00:52:44.527Z,0.00
2023-03-29T00:53:44.681Z,0.00
2023-03-29T00:54:45.033Z,0.00
2023-03-29T00:55:45.366Z,0.00
2023-03-29T00:56:45.606Z,0.00
2023-03-29T00:57:45.892Z,0.00
2023-03-29T00:58:46.164Z,0.00
2023-03-29T00:59:46.404Z,0.00
2023-03-29T01:00:46.712Z,0.00
2023-03-29T01:01:47.125Z,0.00
2023-03-29T01:02:47.340Z,0.00
2023-03-29T01:03:47.634Z,0.00
2023-03-29T01:04:47.887Z,0.00
2023-03-29T01:05:48.086Z,0.00
2023-03-29T01:06:48.500Z,0.00
2023-03-29T01:07:48.654Z,0.00
2023-03-29T01:08:48.994Z,0.00
2023-03-29T01:09:49.298Z,0.00
2023-03-29T01:10:49.565Z,0.00
2023-03-29T01:11:49.839Z,0.00
2023-03-29T01:12:50.120Z,0.00
2023-03-29T01:13:50.448Z,0.00
2023-03-29T01:14:50.802Z,0.00
2023-03-29T01:15:51.001Z,0.00
2023-03-29T01:16:51.307Z,0.00
2023-03-29T01:17:51.588Z,0.00
2023-03-29T01:18:51.856Z,0.00
2023-03-29T01:19:52.136Z,0.00
2023-03-29T01:20:52.430Z,0.00
2023-03-29T01:21:52.709Z,0.00
2023-03-29T01:22:52.976Z,0.00
2023-03-29T01:23:53.373Z,0.00
2023-03-29T01:24:53.529Z,0.00
2023-03-29T01:25:53.704Z,1.00
2023-03-29T01:26:54.112Z,0.00
2023-03-29T01:27:54.367Z,0.00
2023-03-29T01:28:54.681Z,0.00
2023-03-29T01:29:54.953Z,0.00
2023-03-29T01:30:55.306Z,0.00
2023-03-29T01:31:55.600Z,0.00
2023-03-29T01:32:55.900Z,0.00
2023-03-29T01:33:56.153Z,0.00
2023-03-29T01:34:56.472Z,0.00
2023-03-29T01:35:56.736Z,0.00
2023-03-29T01:36:57.137Z,0.00
2023-03-29T01:37:57.288Z,0.00
2023-03-29T01:38:57.580Z,0.00
2023-03-29T01:39:57.899Z,0.00
2023-03-29T01:40:58.225Z,0.00
2023-03-29T01:41:58.425Z,0.00
2023-03-29T01:42:58.723Z,0.00
2023-03-29T01:43:59.038Z,0.00
2023-03-29T01:44:59.322Z,0.00
2023-03-29T01:45:59.711Z,0.00
2023-03-29T01:46:59.840Z,0.00
2023-03-29T01:48:00.193Z,0.00
2023-03-29T01:49:00.475Z,0.00
2023-03-29T01:50:00.743Z,0.00
2023-03-29T01:51:01.292Z,0.00
2023-03-29T01:52:01.340Z,0.00
2023-03-29T01:53:01.653Z,0.00
2023-03-29T01:54:01.988Z,0.00
2023-03-29T01:55:02.310Z,0.00
2023-03-29T01:56:02.548Z,0.00
2023-03-29T01:57:03.010Z,0.00
2023-03-29T01:58:03.151Z,0.00
2023-03-29T01:59:04.198Z,0.00
2023-03-29T02:00:03.665Z,0.00
2023-03-29T02:01:04.407Z,0.00
2023-03-29T02:02:04.308Z,0.00
2023-03-29T02:03:04.641Z,0.00
2023-03-29T02:04:04.861Z,0.00
2023-03-29T02:05:05.142Z,0.00
2023-03-29T02:06:05.440Z,0.00
2023-03-29T02:07:05.708Z,0.00
2023-03-29T02:08:06.030Z,0.00
2023-03-29T02:09:06.393Z,0.00
2023-03-29T02:10:06.630Z,0.00
2023-03-29T02:11:06.949Z,0.00
2023-03-29T02:12:07.201Z,0.00
2023-03-29T02:13:07.516Z,0.00
2023-03-29T02:14:07.748Z,1.00
2023-03-29T02:15:08.014Z,0.00
2023-03-29T02:16:08.404Z,0.00
2023-03-29T02:17:08.531Z,0.00
2023-03-29T02:18:08.893Z,0.00
2023-03-29T02:19:09.124Z,0.00
2023-03-29T02:20:09.464Z,0.00
2023-03-29T02:21:09.692Z,0.00
2023-03-29T02:22:09.994Z,0.00
2023-03-29T02:23:10.340Z,0.00
2023-03-29T02:24:10.745Z,0.00
2023-03-29T02:25:10.905Z,0.00
2023-03-29T02:26:11.169Z,0.00
2023-03-29T02:27:11.381Z,0.00
2023-03-29T02:28:11.782Z,0.00
2023-03-29T02:29:12.091Z,0.00
2023-03-29T02:30:12.326Z,0.00
2023-03-29T02:31:12.671Z,0.00
2023-03-29T02:32:12.959Z,0.00
2023-03-29T02:33:13.221Z,0.00
2023-03-29T02:34:13.483Z,0.00
2023-03-29T02:35:13.798Z,0.00
2023-03-29T02:36:14.131Z,0.00
2023-03-29T02:37:14.414Z,0.00
2023-03-29T02:38:14.713Z,0.00
2023-03-29T02:39:15.006Z,0.00
2023-03-29T02:40:15.236Z,0.00
2023-03-29T02:41:15.532Z,0.00
2023-03-29T02:42:15.849Z,0.00
2023-03-29T02:43:16.171Z,0.00
2023-03-29T02:44:16.492Z,0.00
2023-03-29T02:45:16.836Z,0.00
2023-03-29T02:46:17.133Z,0.00
2023-03-29T02:47:17.773Z,0.00
2023-03-29T02:48:17.766Z,0.00
2023-03-29T02:49:18.031Z,0.00
2023-03-29T02:50:18.254Z,0.00
2023-03-29T02:51:20.027Z,0.00
2023-03-29T02:52:18.840Z,0.00
2023-03-29T02:53:19.129Z,0.00
2023-03-29T02:54:19.315Z,0.00
2023-03-29T02:55:19.572Z,0.00
2023-03-29T02:56:19.897Z,0.00
2023-03-29T02:57:20.179Z,0.00
2023-03-29T02:58:20.587Z,0.00
2023-03-29T02:59:21.594Z,0.00
2023-03-29T03:00:21.043Z,0.00
2023-03-29T03:01:21.374Z,0.00
2023-03-29T03:02:21.606Z,0.00
2023-03-29T03:03:22.049Z,0.00
2023-03-29T03:04:22.185Z,0.00
2023-03-29T03:05:22.426Z,1.00
2023-03-29T03:06:22.782Z,0.00
2023-03-29T03:07:22.946Z,1.00
2023-03-29T03:08:23.388Z,0.00
2023-03-29T03:09:23.563Z,0.00
2023-03-29T03:10:23.829Z,0.00
2023-03-29T03:11:24.563Z,0.00
2023-03-29T03:12:24.319Z,1.00
2023-03-29T03:13:24.673Z,0.00
2023-03-29T03:14:25.783Z,0.00
2023-03-29T03:15:25.237Z,0.00
2023-03-29T03:16:25.592Z,0.00
2023-03-29T03:17:25.829Z,0.00
2023-03-29T03:18:26.085Z,0.00
2023-03-29T03:19:26.411Z,0.00
2023-03-29T03:20:26.687Z,0.00
2023-03-29T03:21:27.042Z,0.00
2023-03-29T03:22:27.324Z,0.00
2023-03-29T03:23:27.644Z,0.00
2023-03-29T03:24:28.808Z,0.00
2023-03-29T03:25:28.249Z,0.00
2023-03-29T03:26:28.516Z,0.00
2023-03-29T03:27:28.851Z,0.00
2023-03-29T03:28:29.111Z,0.00
2023-03-29T03:29:29.448Z,0.00
2023-03-29T03:30:29.747Z,0.00
2023-03-29T03:31:30.027Z,0.00
2023-03-29T03:32:30.383Z,0.00
2023-03-29T03:33:30.613Z,0.00
2023-03-29T03:34:30.890Z,0.00
2023-03-29T03:35:31.207Z,0.00
2023-03-29T03:36:31.471Z,0.00
2023-03-29T03:37:31.874Z,0.00
2023-03-29T03:38:32.162Z,0.00
2023-03-29T03:39:32.431Z,0.00
2023-03-29T03:40:32.744Z,0.00
2023-03-29T03:41:33.031Z,0.00
2023-03-29T03:42:33.375Z,0.00
2023-03-29T03:43:33.639Z,0.00
2023-03-29T03:44:33.931Z,0.00
2023-03-29T03:45:34.234Z,0.00
2023-03-29T03:46:34.533Z,0.00
2023-03-29T03:47:34.892Z,0.00
2023-03-29T03:48:35.215Z,0.00
2023-03-29T03:49:35.431Z,1.00
2023-03-29T03:50:35.768Z,0.00
2023-03-29T03:51:36.041Z,0.00
2023-03-29T03:52:36.342Z,0.00
2023-03-29T03:53:36.631Z,1.00
2023-03-29T03:54:36.980Z,0.00
2023-03-29T03:55:37.330Z,0.00
2023-03-29T03:56:37.590Z,0.00
2023-03-29T03:57:37.808Z,0.00
2023-03-29T03:58:38.142Z,0.00
2023-03-29T03:59:38.393Z,0.00
2023-03-29T04:00:38.705Z,0.00
2023-03-29T04:01:39.026Z,0.00
2023-03-29T04:02:39.374Z,0.00
2023-03-29T04:03:39.776Z,0.00
2023-03-29T04:04:40.780Z,0.00
2023-03-29T04:05:40.230Z,0.00
2023-03-29T04:06:43.125Z,0.00
2023-03-29T04:07:40.956Z,0.00
2023-03-29T04:08:41.134Z,0.00
2023-03-29T04:09:41.423Z,0.00
2023-03-29T04:10:41.643Z,0.00
2023-03-29T04:11:41.992Z,0.00
2023-03-29T04:12:42.207Z,0.00
2023-03-29T04:13:42.518Z,0.00
2023-03-29T04:14:42.862Z,0.00
2023-03-29T04:15:43.217Z,0.00
2023-03-29T04:16:43.377Z,0.00
2023-03-29T04:17:43.692Z,0.00
2023-03-29T04:18:44.018Z,0.00
2023-03-29T04:19:44.136Z,1.00
2023-03-29T04:20:45.326Z,0.00
2023-03-29T04:21:44.729Z,0.00
2023-03-29T04:22:45.028Z,0.00
2023-03-29T04:23:45.252Z,0.00
2023-03-29T04:24:45.548Z,0.00
2023-03-29T04:25:45.841Z,0.00
2023-03-29T04:26:47.016Z,1.00
2023-03-29T04:27:46.494Z,0.00
2023-03-29T04:28:46.648Z,1.00
2023-03-29T04:29:47.852Z,0.00
2023-03-29T04:30:47.368Z,0.00
2023-03-29T04:31:47.533Z,0.00
2023-03-29T04:32:47.840Z,0.00
2023-03-29T04:33:48.022Z,1.00
2023-03-29T04:34:48.437Z,0.00
2023-03-29T04:35:48.717Z,0.00
2023-03-29T04:36:49.096Z,0.00
2023-03-29T04:37:49.343Z,0.00
2023-03-29T04:38:49.601Z,0.00
2023-03-29T04:39:49.884Z,0.00
2023-03-29T04:40:50.217Z,0.00
2023-03-29T04:41:50.475Z,1.00
2023-03-29T04:42:50.664Z,1.00
2023-03-29T04:43:50.983Z,1.00
2023-03-29T04:44:52.200Z,1.00
2023-03-29T04:45:51.652Z,1.00
2023-03-29T04:46:52.073Z,0.00
2023-03-29T04:47:52.304Z,2.00
2023-03-29T04:48:52.541Z,2.00
2023-03-29T04:49:52.823Z,1.00
2023-03-29T04:50:53.033Z,1.00
2023-03-29T04:51:53.328Z,2.00
2023-03-29T04:52:53.622Z,2.00
2023-03-29T04:53:53.812Z,3.00
2023-03-29T04:54:54.080Z,6.00
2023-03-29T04:55:54.391Z,5.00
2023-03-29T04:56:54.707Z,4.00
2023-03-29T04:57:54.998Z,3.00
2023-03-29T04:58:55.330Z,3.00
2023-03-29T04:59:55.677Z,7.00
2023-03-29T05:00:56.024Z,6.00
2023-03-29T05:01:56.238Z,7.00
2023-03-29T05:02:56.616Z,6.00
2023-03-29T05:03:56.902Z,8.00
2023-03-29T05:04:57.048Z,10.00
2023-03-29T05:05:57.259Z,11.00
2023-03-29T05:06:57.614Z,12.00
2023-03-29T05:07:57.853Z,12.00
2023-03-29T05:08:58.215Z,17.00
2023-03-29T05:09:58.409Z,28.00
2023-03-29T05:10:58.750Z,30.00
2023-03-29T05:11:59.065Z,33.00
2023-03-29T05:12:59.413Z,37.00
2023-03-29T05:13:59.813Z,40.00
2023-03-29T05:15:00.003Z,45.00
2023-03-29T05:16:00.309Z,41.00
2023-03-29T05:17:00.448Z,50.00
2023-03-29T05:18:00.910Z,54.00
2023-03-29T05:19:01.116Z,59.00
2023-03-29T05:20:01.332Z,61.00
2023-03-29T05:21:01.836Z,73.00
2023-03-29T05:22:01.970Z,78.00
2023-03-29T05:23:02.216Z,88.00
2023-03-29T05:24:02.427Z,104.00
2023-03-29T05:25:02.688Z,109.00
2023-03-29T05:26:02.974Z,120.00
2023-03-29T05:27:03.174Z,131.00
2023-03-29T05:28:03.510Z,143.00
2023-03-29T05:29:03.706Z,146.00
2023-03-29T05:30:04.070Z,152.00
2023-03-29T05:31:04.886Z,165.00
2023-03-29T05:32:04.624Z,166.00
2023-03-29T05:33:04.812Z,183.00
2023-03-29T05:34:05.114Z,183.00
2023-03-29T05:35:05.423Z,196.00
2023-03-29T05:36:05.808Z,212.00
2023-03-29T05:37:05.997Z,220.00
2023-03-29T05:38:06.327Z,229.00
2023-03-29T05:39:06.655Z,236.00
2023-03-29T05:40:07.125Z,255.00
2023-03-29T05:41:07.277Z,259.00
2023-03-29T05:42:07.614Z,267.00
2023-03-29T05:43:07.971Z,280.00
2023-03-29T05:44:08.211Z,285.00
2023-03-29T05:45:08.538Z,292.00
2023-03-29T05:46:08.957Z,311.00
2023-03-29T05:47:09.150Z,318.00
2023-03-29T05:48:09.585Z,330.00
2023-03-29T05:49:09.775Z,342.00
2023-03-29T05:50:10.164Z,361.00
2023-03-29T05:51:10.426Z,387.00
2023-03-29T05:52:10.623Z,397.00
2023-03-29T05:53:11.022Z,409.00
2023-03-29T05:54:11.218Z,424.00
2023-03-29T05:55:11.628Z,429.00
2023-03-29T05:56:11.823Z,436.00
2023-03-29T05:57:12.202Z,451.00
2023-03-29T05:58:12.544Z,462.00
2023-03-29T05:59:12.770Z,469.00
2023-03-29T06:00:13.077Z,484.00
2023-03-29T06:01:13.342Z,492.00
2023-03-29T06:02:13.538Z,494.00
2023-03-29T06:03:20.244Z,508.00
2023-03-29T06:04:15.207Z,525.00
2023-03-29T06:05:14.428Z,537.00
2023-03-29T06:06:14.644Z,548.00
2023-03-29T06:07:14.945Z,581.00
2023-03-29T06:08:15.139Z,580.00
2023-03-29T06:09:15.486Z,595.00
2023-03-29T06:10:15.695Z,609.00
2023-03-29T06:11:16.125Z,630.00
2023-03-29T06:12:16.248Z,663.00
2023-03-29T06:13:16.640Z,661.00
2023-03-29T06:14:16.890Z,687.00
2023-03-29T06:15:17.127Z,724.00
2023-03-29T06:16:17.405Z,725.00
2023-03-29T06:17:17.655Z,739.00
2023-03-29T06:18:17.833Z,765.00
2023-03-29T06:19:18.237Z,784.00
2023-03-29T06:20:18.420Z,816.00
2023-03-29T06:21:18.740Z,841.00
2023-03-29T06:22:19.009Z,837.00
2023-03-29T06:23:19.361Z,855.00
2023-03-29T06:24:19.609Z,892.00
2023-03-29T06:25:19.953Z,898.00
2023-03-29T06:26:20.294Z,941.00
2023-03-29T06:27:20.546Z,960.00
2023-03-29T06:28:20.771Z,957.00
2023-03-29T06:29:21.076Z,968.00
2023-03-29T06:30:21.355Z,995.00
2023-03-29T06:31:21.681Z,996.00
2023-03-29T06:32:22.885Z,979.00
2023-03-29T06:33:22.277Z,979.00
2023-03-29T06:34:22.547Z,971.00
2023-03-29T06:35:22.765Z,972.00
2023-03-29T06:36:22.981Z,993.00
2023-03-29T06:37:23.399Z,974.00
2023-03-29T06:38:23.748Z,988.00
2023-03-29T06:39:24.012Z,1030.00
2023-03-29T06:40:24.214Z,1043.00
2023-03-29T06:41:24.475Z,1052.00
2023-03-29T06:42:24.682Z,1063.00
2023-03-29T06:43:25.055Z,1106.00
2023-03-29T06:44:25.307Z,1114.00
2023-03-29T06:45:26.839Z,1147.00
2023-03-29T06:46:25.853Z,1162.00
2023-03-29T06:47:26.089Z,1142.00
2023-03-29T06:48:26.762Z,1181.00
2023-03-29T06:49:26.628Z,1204.00
2023-03-29T06:50:26.863Z,1226.00
2023-03-29T06:51:27.234Z,1238.00
2023-03-29T06:52:27.548Z,1252.00
2023-03-29T06:53:27.711Z,1289.00
2023-03-29T06:54:28.072Z,1261.00
2023-03-29T06:55:28.407Z,1277.00
2023-03-29T06:56:28.741Z,1324.00
2023-03-29T06:57:28.952Z,1317.00
2023-03-29T06:58:29.196Z,1340.00
2023-03-29T06:59:30.398Z,1373.00
2023-03-29T07:00:29.927Z,1375.00
2023-03-29T07:01:30.117Z,1367.00
2023-03-29T07:02:30.356Z,1353.00
2023-03-29T07:03:30.607Z,1414.00
2023-03-29T07:04:30.886Z,1378.00
2023-03-29T07:05:31.214Z,1403.00
2023-03-29T07:06:31.382Z,1457.00
2023-03-29T07:07:31.729Z,1378.00
2023-03-29T07:08:31.925Z,1362.00
2023-03-29T07:09:32.319Z,1363.00
2023-03-29T07:10:32.872Z,1401.00
2023-03-29T07:11:32.821Z,1474.00
2023-03-29T07:12:33.227Z,1427.00
2023-03-29T07:13:33.418Z,1457.00
2023-03-29T07:14:33.822Z,1409.00
2023-03-29T07:15:34.061Z,1393.00
2023-03-29T07:16:34.428Z,1366.00
2023-03-29T07:17:34.785Z,1420.00
2023-03-29T07:18:35.010Z,1437.00
2023-03-29T07:19:36.129Z,1319.00
2023-03-29T07:20:35.568Z,1348.00
2023-03-29T07:21:37.877Z,1314.00
2023-03-29T07:22:35.997Z,1355.00
2023-03-29T07:23:36.352Z,1349.00
2023-03-29T07:24:36.729Z,1412.00
2023-03-29T07:25:37.013Z,1439.00
2023-03-29T07:26:37.940Z,1433.00
2023-03-29T07:27:37.513Z,1409.00
2023-03-29T07:28:37.913Z,1421.00
2023-03-29T07:29:38.249Z,1473.00
2023-03-29T07:30:38.556Z,1468.00
2023-03-29T07:31:38.781Z,1524.00
2023-03-29T07:32:39.167Z,1518.00
2023-03-29T07:33:39.498Z,1501.00
2023-03-29T07:34:39.636Z,1480.00
2023-03-29T07:35:39.896Z,1447.00
2023-03-29T07:36:40.163Z,1403.00
2023-03-29T07:37:40.408Z,1403.00
2023-03-29T07:38:40.667Z,1369.00
2023-03-29T07:39:41.363Z,1356.00
2023-03-29T07:40:41.187Z,1339.00
2023-03-29T07:41:41.425Z,1338.00
2023-03-29T07:42:41.698Z,1412.00
2023-03-29T07:43:41.924Z,1394.00
2023-03-29T07:44:42.356Z,1376.00
2023-03-29T07:45:42.566Z,1376.00
2023-03-29T07:46:42.958Z,1368.00
2023-03-29T07:47:43.140Z,1347.00
2023-03-29T07:48:43.593Z,1415.00
2023-03-29T07:49:43.796Z,1423.00
2023-03-29T07:50:44.114Z,1437.00
2023-03-29T07:51:44.328Z,1476.00
2023-03-29T07:52:44.732Z,1467.00
2023-03-29T07:53:44.902Z,1503.00
2023-03-29T07:54:45.158Z,1507.00
2023-03-29T07:55:47.018Z,1461.00
2023-03-29T07:56:45.814Z,1362.00
2023-03-29T07:57:45.951Z,1237.00
2023-03-29T07:58:46.318Z,1235.00
2023-03-29T07:59:46.603Z,1206.00
2023-03-29T08:00:46.866Z,1246.00
2023-03-29T08:01:47.152Z,1233.00
2023-03-29T08:02:47.419Z,1216.00
2023-03-29T08:03:47.616Z,1204.00
2023-03-29T08:04:47.846Z,1226.00
2023-03-29T08:05:48.106Z,1232.00
2023-03-29T08:06:48.449Z,1196.00
2023-03-29T08:07:48.822Z,1192.00
2023-03-29T08:08:49.139Z,1135.00
2023-03-29T08:09:49.228Z,1168.00
2023-03-29T08:10:49.538Z,1197.00
2023-03-29T08:11:49.752Z,1219.00
2023-03-29T08:12:50.108Z,1172.00
2023-03-29T08:13:50.588Z,1295.00
2023-03-29T08:14:50.621Z,1332.00
2023-03-29T08:15:50.947Z,1279.00
2023-03-29T08:16:51.384Z,1273.00
2023-03-29T08:17:51.703Z,1284.00
2023-03-29T08:18:51.925Z,1268.00
2023-03-29T08:19:52.318Z,1220.00
2023-03-29T08:20:52.535Z,1247.00
2023-03-29T08:21:52.987Z,1264.00
2023-03-29T08:22:53.009Z,1280.00
2023-03-29T08:23:53.291Z,1361.00
2023-03-29T08:24:53.575Z,1355.00
2023-03-29T08:25:53.843Z,1475.00
2023-03-29T08:26:54.201Z,1533.00
2023-03-29T08:27:54.376Z,1484.00
2023-03-29T08:28:54.667Z,1382.00
2023-03-29T08:29:55.258Z,1433.00
2023-03-29T08:30:55.254Z,1473.00
2023-03-29T08:31:55.609Z,1428.00
2023-03-29T08:32:55.829Z,1382.00
2023-03-29T08:33:56.093Z,1370.00
2023-03-29T08:34:56.470Z,1415.00
2023-03-29T08:35:56.608Z,1465.00
2023-03-29T08:36:56.889Z,1426.00
2023-03-29T08:37:57.165Z,1467.00
2023-03-29T08:38:58.432Z,1392.00
2023-03-29T08:39:57.699Z,1456.00
2023-03-29T08:40:57.998Z,1393.00
2023-03-29T08:41:58.241Z,1351.00
2023-03-29T08:42:58.586Z,1331.00
2023-03-29T08:43:58.786Z,1306.00
2023-03-29T08:44:59.034Z,1362.00
2023-03-29T08:45:59.360Z,1397.00
2023-03-29T08:46:59.694Z,1364.00
2023-03-29T08:47:59.953Z,1462.00
2023-03-29T08:49:00.127Z,1513.00
2023-03-29T08:50:00.499Z,1624.00
2023-03-29T08:51:00.936Z,1635.00
2023-03-29T08:52:01.078Z,1587.00
2023-03-29T08:53:01.345Z,1527.00
2023-03-29T08:54:01.554Z,1530.00
2023-03-29T08:55:01.930Z,1475.00
2023-03-29T08:56:03.090Z,1369.00
2023-03-29T08:57:02.565Z,1443.00
2023-03-29T08:58:02.711Z,1291.00
2023-03-29T08:59:03.081Z,1179.00
2023-03-29T09:00:03.267Z,1130.00
2023-03-29T09:01:03.690Z,987.00
2023-03-29T09:02:03.852Z,950.00
2023-03-29T09:03:04.236Z,1051.00
2023-03-29T09:04:04.489Z,1055.00
2023-03-29T09:05:04.642Z,999.00
2023-03-29T09:06:04.972Z,979.00
2023-03-29T09:07:05.246Z,1012.00
2023-03-29T09:08:05.453Z,1021.00
2023-03-29T09:09:05.867Z,989.00
2023-03-29T09:10:06.023Z,1061.00
2023-03-29T09:11:06.306Z,1015.00
2023-03-29T09:12:06.513Z,921.00
2023-03-29T09:13:06.745Z,941.00
2023-03-29T09:14:07.046Z,1049.00
2023-03-29T09:15:07.267Z,1195.00
2023-03-29T09:16:07.538Z,1226.00
2023-03-29T09:17:07.965Z,1263.00
2023-03-29T09:18:08.060Z,1325.00
2023-03-29T09:19:08.233Z,1460.00
2023-03-29T09:20:08.621Z,1646.00
2023-03-29T09:21:08.900Z,1546.00
2023-03-29T09:22:09.165Z,1733.00
2023-03-29T09:23:09.389Z,1700.00
2023-03-29T09:24:09.720Z,1899.00
2023-03-29T09:25:10.069Z,2128.00
2023-03-29T09:26:10.281Z,2515.00
2023-03-29T09:27:10.911Z,2549.00
2023-03-29T09:28:11.606Z,2424.00
2023-03-29T09:29:11.154Z,2471.00
2023-03-29T09:30:12.403Z,2975.00
2023-03-29T09:31:12.731Z,3920.00
2023-03-29T09:32:12.014Z,3939.00
2023-03-29T09:33:12.427Z,4039.00
2023-03-29T09:34:14.393Z,4558.00
2023-03-29T09:35:13.654Z,6214.00
2023-03-29T09:36:13.190Z,4071.00
2023-03-29T09:37:13.359Z,3094.00
2023-03-29T09:38:13.604Z,4129.00
2023-03-29T09:39:13.915Z,3592.00
2023-03-29T09:40:14.367Z,3677.00
2023-03-29T09:41:14.499Z,4819.00
2023-03-29T09:42:14.816Z,2970.00
2023-03-29T09:43:15.003Z,6873.00
2023-03-29T09:45:16.620Z,2862.00
2023-03-29T09:46:16.467Z,3609.00
2023-03-29T09:47:17.128Z,3048.00
2023-03-29T09:48:16.406Z,2991.00
2023-03-29T09:49:17.447Z,2569.00
2023-03-29T09:50:29.651Z,2299.00
2023-03-29T09:51:18.212Z,2552.00
2023-03-29T09:52:17.480Z,3638.00
2023-03-29T09:53:17.782Z,3278.00
2023-03-29T09:54:17.997Z,3414.00
2023-03-29T09:55:19.195Z,4201.00
2023-03-29T09:56:18.556Z,4130.00
2023-03-29T09:57:18.965Z,4714.00
2023-03-29T09:58:19.179Z,5813.00
2023-03-29T09:59:19.374Z,5816.00
2023-03-29T10:00:19.637Z,5734.00
2023-03-29T10:01:19.937Z,7105.00
2023-03-29T10:02:20.190Z,5691.00
2023-03-29T10:03:20.463Z,4308.00
2023-03-29T10:04:20.737Z,9613.00
2023-03-29T10:05:21.082Z,5648.00
2023-03-29T10:06:21.332Z,6772.00
2023-03-29T10:07:21.588Z,6055.00
2023-03-29T10:08:22.795Z,10921.00
2023-03-29T10:09:22.143Z,3917.00
2023-03-29T10:10:22.420Z,3518.00
2023-03-29T10:11:22.859Z,4316.00
2023-03-29T10:12:22.968Z,4483.00
2023-03-29T10:13:23.271Z,6311.00
2023-03-29T10:14:23.500Z,5006.00
2023-03-29T10:15:29.606Z,4462.00
2023-03-29T10:16:25.051Z,9767.00
2023-03-29T10:17:24.396Z,5305.00
2023-03-29T10:18:24.673Z,4575.00
2023-03-29T10:19:24.926Z,6405.00
2023-03-29T10:20:25.395Z,5896.00
2023-03-29T10:21:25.475Z,6615.00
2023-03-29T10:22:25.757Z,7400.00
2023-03-29T10:23:26.118Z,13301.00
2023-03-29T10:24:26.255Z,15851.00
2023-03-29T10:25:26.609Z,6632.00
2023-03-29T10:26:26.867Z,8950.00
2023-03-29T10:27:27.129Z,15492.00
2023-03-29T10:28:27.377Z,3898.00
2023-03-29T10:29:27.608Z,8043.00
2023-03-29T10:30:27.851Z,6631.00
2023-03-29T10:31:28.113Z,5803.00
2023-03-29T10:32:28.408Z,24322.00
2023-03-29T10:33:28.652Z,10135.00
2023-03-29T10:34:28.883Z,8727.00
2023-03-29T10:35:29.249Z,11693.00
2023-03-29T10:36:29.552Z,19752.00
2023-03-29T10:37:29.765Z,6245.00
2023-03-29T10:38:30.130Z,8693.00
2023-03-29T10:39:30.348Z,6735.00
2023-03-29T10:40:30.629Z,11879.00
2023-03-29T10:41:31.195Z,15949.00
2023-03-29T10:42:31.207Z,16543.00
2023-03-29T10:43:31.642Z,16932.00
2023-03-29T10:44:33.227Z,20742.00
2023-03-29T10:45:32.172Z,7173.00
2023-03-29T10:46:32.508Z,6234.00
2023-03-29T10:47:32.776Z,5742.00
2023-03-29T10:48:33.022Z,9267.00
2023-03-29T10:49:33.296Z,9723.00
2023-03-29T10:50:33.523Z,6294.00
2023-03-29T10:51:33.968Z,5600.00
2023-03-29T10:52:34.152Z,7098.00
2023-03-29T10:53:34.350Z,8777.00
2023-03-29T10:54:34.603Z,8336.00
2023-03-29T10:55:34.919Z,10815.00
2023-03-29T10:56:35.554Z,11261.00
2023-03-29T10:57:35.490Z,10143.00
2023-03-29T10:58:35.658Z,14752.00
2023-03-29T10:59:35.996Z,14713.00
2023-03-29T11:00:36.234Z,15623.00
2023-03-29T11:01:37.420Z,12998.00
2023-03-29T11:02:36.917Z,22163.00
2023-03-29T11:03:37.201Z,28830.00
2023-03-29T11:04:37.416Z,20664.00
2023-03-29T11:05:37.581Z,18383.00
2023-03-29T11:06:38.032Z,11913.00
2023-03-29T11:07:38.248Z,79180.00
2023-03-29T11:08:38.480Z,78946.00
2023-03-29T11:09:38.940Z,76199.00
2023-03-29T11:10:40.041Z,23986.00
2023-03-29T11:11:39.372Z,13269.00
2023-03-29T11:12:39.607Z,13454.00
2023-03-29T11:13:39.953Z,75479.00
2023-03-29T11:14:40.155Z,31675.00
2023-03-29T11:15:40.446Z,19263.00
2023-03-29T11:16:40.715Z,71915.00
2023-03-29T11:17:41.053Z,73574.00
2023-03-29T11:18:41.342Z,30843.00
2023-03-29T11:19:41.542Z,16839.00
2023-03-29T11:20:41.822Z,19705.00
2023-03-29T11:21:42.177Z,14853.00
2023-03-29T11:22:42.628Z,18653.00
2023-03-29T11:23:42.761Z,18996.00
2023-03-29T11:24:43.298Z,22888.00
2023-03-29T11:25:43.306Z,75259.00
2023-03-29T11:26:43.818Z,77498.00
2023-03-29T11:27:43.890Z,72745.00
2023-03-29T11:28:44.312Z,22414.00
2023-03-29T11:29:44.622Z,75031.00
2023-03-29T11:30:44.714Z,77921.00
2023-03-29T11:31:45.174Z,72937.00
2023-03-29T11:32:45.571Z,23474.00
2023-03-29T11:33:45.672Z,23217.00
2023-03-29T11:34:45.867Z,26113.00
2023-03-29T11:35:46.153Z,17788.00
2023-03-29T11:36:46.415Z,19491.00
2023-03-29T11:37:46.643Z,17695.00
2023-03-29T11:38:46.915Z,20591.00
2023-03-29T11:39:47.174Z,27547.00
2023-03-29T11:40:47.533Z,8066.00
2023-03-29T11:41:47.797Z,7471.00
2023-03-29T11:42:48.049Z,9661.00
2023-03-29T11:43:48.409Z,77798.00
2023-03-29T11:44:48.728Z,71941.00
2023-03-29T11:45:49.035Z,76435.00
2023-03-29T11:46:49.303Z,71269.00
2023-03-29T11:47:49.591Z,9870.00
2023-03-29T11:48:49.817Z,8691.00
2023-03-29T11:49:50.167Z,9835.00
2023-03-29T11:50:50.457Z,65044.00
2023-03-29T11:51:50.702Z,29390.00
2023-03-29T11:52:51.050Z,8700.00
2023-03-29T11:53:51.271Z,7032.00
2023-03-29T11:54:51.528Z,13027.00
2023-03-29T11:55:51.776Z,27838.00
2023-03-29T11:56:52.101Z,6152.00
2023-03-29T11:57:52.326Z,19643.00
2023-03-29T11:58:52.602Z,7320.00
2023-03-29T11:59:52.917Z,8579.00
2023-03-29T12:00:53.140Z,76318.00
2023-03-29T12:01:53.705Z,6390.00
2023-03-29T12:02:53.837Z,28281.00
2023-03-29T12:03:54.161Z,75385.00
2023-03-29T12:04:54.455Z,74996.00
2023-03-29T12:05:54.700Z,7935.00
2023-03-29T12:06:54.925Z,78115.00
2023-03-29T12:07:55.229Z,64270.00
2023-03-29T12:08:55.458Z,78069.00
2023-03-29T12:09:55.836Z,74262.00
2023-03-29T12:10:56.100Z,73517.00
2023-03-29T12:11:56.359Z,62984.00
2023-03-29T12:12:56.582Z,24580.00
2023-03-29T12:13:56.816Z,13301.00
2023-03-29T12:14:57.073Z,20160.00
2023-03-29T12:15:57.295Z,9188.00
2023-03-29T12:16:57.632Z,64578.00
2023-03-29T12:17:57.850Z,15436.00
2023-03-29T12:18:58.658Z,5465.00
2023-03-29T12:19:58.567Z,8077.00
2023-03-29T12:20:58.928Z,27324.00
2023-03-29T12:21:59.131Z,18603.00
2023-03-29T12:22:59.363Z,9743.00
2023-03-29T12:23:59.671Z,5375.00
2023-03-29T12:25:00.010Z,10821.00
2023-03-29T12:26:00.519Z,18695.00
2023-03-29T12:27:00.763Z,8707.00
2023-03-29T12:28:01.067Z,4379.00
2023-03-29T12:29:01.251Z,19658.00
2023-03-29T12:30:01.512Z,6687.00
2023-03-29T12:31:02.083Z,4397.00
2023-03-29T12:32:02.183Z,78011.00
2023-03-29T12:33:02.375Z,7413.00
2023-03-29T12:34:02.640Z,5124.00
2023-03-29T12:35:02.848Z,4239.00
2023-03-29T12:36:03.263Z,2914.00
2023-03-29T12:37:03.554Z,67918.00
2023-03-29T12:38:03.827Z,5233.00
2023-03-29T12:39:04.108Z,8473.00